Air Resources Laboratory banner image
Air Resources Laboratory web site National Oceanic and Atmospheric Administration (NOAA)

wi metar


KAIG 160655Z AUTO 20008KT 7SM CLR M03/M04 A3005 RMK AO2 T10331040=
KARV 160655Z AUTO 19011G16KT 10SM CLR 01/M03 A2998 RMK AO2 T00111033=
KASX 160653Z AUTO 22010KT 10SM CLR 04/M06 A2994 RMK AO2 SLP147 T00391061=
KATW 160655Z AUTO 20006KT 10SM CLR M02/M04 A3009 RMK AO2=
KAUW 160654Z AUTO 15005KT 8SM CLR M03/M05 A3004 RMK AO2 SLP191 T10331050=
KCLI 160655Z AUTO 00000KT 5SM BR CLR M06/M06 A3011 RMK AO2 T10561064 400531082=
KCMY 160655Z AUTO 00000KT 10SM CLR M07/M08 A3009 RMK AO2 T10721080=
KCWA 160655Z AUTO 18005KT 5SM BR CLR M04/M05 A3007 RMK AO2=
KDLL 160655Z AUTO 19003KT 10SM CLR M03/M04 A3010 RMK AO2 T10341036=
KEAU 160656Z AUTO 19004KT 10SM CLR 01/M04 A3003 RMK AO2 SLP179 T00111044=
KEFT 160655Z AUTO 10SM CLR 00/M03 A3012 RMK AO2 T10041031=
KEGV 160655Z AUTO 20004KT 10SM CLR M01/M06 A2999 RMK AO2 T10081060=
KENW 160653Z AUTO 06005KT M1/4SM FZFG M04/M04 A3011 RMK AO2 SLP205 I1000
 T10391044 $=
KETB 160655Z AUTO 00000KT 10SM OVC001 M06/M06 A3013 RMK AO2=
KFLD 160653Z AUTO 17005KT 10SM CLR M04/M06 A3012 RMK AO2 SLP208 T10391056 TSNO=
KGRB 160653Z 20004KT 9SM CLR M03/M06 A3011 RMK AO2 SLP203 T10281056=
KHYR 160653Z AUTO 22010KT 10SM CLR 03/M06 A2998 RMK AO2 SLP164 T00331061=
KISW 160654Z AUTO 18004KT 6SM HZ CLR M04/M07 A3009 RMK AO2 SLP200 I1001
 T10441072 TSNO=
KJVL 160655Z AUTO 00000KT 4SM BR CLR M03/M03 A3013 RMK AO2=
KLNR 160656Z AUTO 11003KT 5SM BR CLR M06/M07 A3013 RMK AO2 SLP206 I1000
 T10561067=
KLSE 160653Z AUTO 15005KT 10SM CLR 01/M04 A3009 RMK AO2 SLP201 T00061039=
KMDZ 160655Z AUTO 17008KT 10SM CLR M03/M06 A3002 RMK AO2 T10321056 TSNO=
KMFI 160654Z AUTO 19008KT CLR M03/M04 A3005 RMK AO2 SLP189 T10281044 TSNO $=
KMKE 160652Z 00000KT 3SM BCFG CLR M03/M04 A3012 RMK AO2 TWR VIS 7 SLP208 I1000
 T10331044=
KMRJ 160655Z AUTO 17005KT 10SM CLR 01/00 A3012 RMK AO2=
KMSN 160653Z 00000KT 4SM BR CLR M07/M07 A3014 RMK AO2 SLP214 I1000 T10671072 $=
KMTW 160656Z AUTO 00000KT 5SM BR SCT003 M04/M05 A3012 RMK AO2 SLP226 T10441050
 FZRANO=
KMWC 160655Z AUTO 00000KT 5SM BR CLR M06/M07 A3014 RMK AO2=
KOEO 160655Z AUTO 15005KT 10SM CLR M01/M04 A3004 RMK AO2 T10061045=
KOSH 160653Z AUTO 17004KT 8SM CLR M04/M05 A3010 RMK AO2 SLP206 T10391050=
KOVS 160653Z AUTO 00000KT 7SM CLR M07/M08 A3014 RMK AO2 SLP215 I1000 T10671078=
KPBH 160655Z AUTO 20007KT 10SM CLR 01/M05 A2999 RMK AO2 T00051050=
KPDC 160655Z AUTO 00000KT 10SM CLR M03/M05 A3014 RMK AO2 T10341047=
KRAC 160653Z AUTO 00000KT 1/4SM FZFG VV001 M03/M04 A3013 RMK AO2 SLP210 I1001
 T10281044=
KRHI 160653Z AUTO 22006KT 10SM CLR 01/M07 A3001 RMK AO2 SLP178 T00061067 $=
KRPD 160655Z AUTO 17006KT 10SM CLR 02/M05 A3001 RMK AO2 T00201047=
KRRL 160655Z AUTO 18003KT 10SM CLR M01/M04 A3005 RMK AO2 T10111036 TSNO=
KRYV 160655Z AUTO 00000KT 10SM CLR M07/M07 A3012 RMK AO2 T10711071=
KSBM 160653Z AUTO 00000KT 4SM BR CLR M04/M05 A3012 RMK AO2 SLP208 I1000
 T10391050=
KSTE 160655Z AUTO 00000KT 7SM CLR M08/M08 A3008 RMK AO2 T10791079=
KSUE 160656Z AUTO 16008KT 10SM CLR 00/M01 A3010 RMK AO2 SLP216 T00001011 FZRANO=
KSUW 160655Z AUTO 23009KT 10SM CLR 03/M05 A2992 RMK AO2 T00291055=
KUES 160655Z AUTO 00000KT 3SM BR CLR M05/M05 A3014 RMK AO2=
KUNU 160655Z AUTO 15003KT 10SM CLR M02/M03 A3012 RMK AO2 T10231034 TSNO=
KVOK 160656Z AUTO 17008KT 10SM CLR M01/M03 A3008 RMK AO2 SLP198 T10071029=